sensor_id;sensor_type;location;lat;lon;timestamp;pressure;altitude;pressure_sealevel;temperature;humidity
36386;BME280;24125;47.482;8.770;2023-06-22T00:01:17;96184.47;;;22.78;80.43
36386;BME280;24125;47.482;8.770;2023-06-22T00:03:50;96179.09;;;22.74;80.37
36386;BME280;24125;47.482;8.770;2023-06-22T00:06:23;96172.09;;;22.70;80.35
36386;BME280;24125;47.482;8.770;2023-06-22T00:08:55;96178.75;;;22.65;80.46
36386;BME280;24125;47.482;8.770;2023-06-22T00:11:30;96182.66;;;22.61;80.32
36386;BME280;24125;47.482;8.770;2023-06-22T00:14:04;96178.44;;;22.56;80.33
36386;BME280;24125;47.482;8.770;2023-06-22T00:16:37;96179.63;;;22.51;80.30
36386;BME280;24125;47.482;8.770;2023-06-22T00:19:10;96183.59;;;22.47;80.13
36386;BME280;24125;47.482;8.770;2023-06-22T00:21:43;96174.66;;;22.43;80.11
36386;BME280;24125;47.482;8.770;2023-06-22T00:24:18;96182.50;;;22.37;80.11
36386;BME280;24125;47.482;8.770;2023-06-22T00:26:52;96179.00;;;22.33;80.13
36386;BME280;24125;47.482;8.770;2023-06-22T00:29:25;96172.84;;;22.29;80.20
36386;BME280;24125;47.482;8.770;2023-06-22T00:31:58;96182.19;;;22.25;80.23
36386;BME280;24125;47.482;8.770;2023-06-22T00:34:31;96175.66;;;22.18;80.16
36386;BME280;24125;47.482;8.770;2023-06-22T00:37:03;96172.94;;;22.15;80.33
36386;BME280;24125;47.482;8.770;2023-06-22T00:39:36;96167.94;;;22.10;80.33
36386;BME280;24125;47.482;8.770;2023-06-22T00:42:10;96173.41;;;22.06;80.34
36386;BME280;24125;47.482;8.770;2023-06-22T00:44:43;96171.09;;;22.01;80.37
36386;BME280;24125;47.482;8.770;2023-06-22T00:47:17;96175.78;;;21.97;80.29
36386;BME280;24125;47.482;8.770;2023-06-22T00:49:50;96173.84;;;21.94;80.54
36386;BME280;24125;47.482;8.770;2023-06-22T00:52:23;96170.38;;;21.90;80.56
36386;BME280;24125;47.482;8.770;2023-06-22T00:55:00;96180.50;;;21.86;80.34
36386;BME280;24125;47.482;8.770;2023-06-22T00:57:35;96192.16;;;21.83;80.59
36386;BME280;24125;47.482;8.770;2023-06-22T01:00:09;96186.75;;;21.79;80.43
36386;BME280;24125;47.482;8.770;2023-06-22T01:02:43;96184.84;;;21.76;80.60
36386;BME280;24125;47.482;8.770;2023-06-22T01:05:18;96193.00;;;21.73;80.67
36386;BME280;24125;47.482;8.770;2023-06-22T01:07:54;96195.75;;;21.69;80.49
36386;BME280;24125;47.482;8.770;2023-06-22T01:10:31;96191.09;;;21.66;80.67
36386;BME280;24125;47.482;8.770;2023-06-22T01:13:10;96184.50;;;21.64;80.53
36386;BME280;24125;47.482;8.770;2023-06-22T01:15:49;96186.47;;;21.60;80.79
36386;BME280;24125;47.482;8.770;2023-06-22T01:18:23;96199.69;;;21.58;80.80
36386;BME280;24125;47.482;8.770;2023-06-22T01:20:58;96196.19;;;21.54;80.73
36386;BME280;24125;47.482;8.770;2023-06-22T01:23:37;96191.56;;;21.51;80.91
36386;BME280;24125;47.482;8.770;2023-06-22T01:26:14;96198.94;;;21.46;80.92
36386;BME280;24125;47.482;8.770;2023-06-22T01:28:52;96208.25;;;21.45;80.86
36386;BME280;24125;47.482;8.770;2023-06-22T01:31:26;96207.13;;;21.43;80.99
36386;BME280;24125;47.482;8.770;2023-06-22T01:34:01;96200.53;;;21.40;80.90
36386;BME280;24125;47.482;8.770;2023-06-22T01:36:35;96213.34;;;21.36;80.98
36386;BME280;24125;47.482;8.770;2023-06-22T01:39:08;96211.03;;;21.35;81.11
36386;BME280;24125;47.482;8.770;2023-06-22T01:41:42;96212.19;;;21.34;81.42
36386;BME280;24125;47.482;8.770;2023-06-22T01:44:16;96214.13;;;21.33;81.18
36386;BME280;24125;47.482;8.770;2023-06-22T01:46:49;96215.69;;;21.31;81.32
36386;BME280;24125;47.482;8.770;2023-06-22T01:49:24;96213.38;;;21.29;81.40
36386;BME280;24125;47.482;8.770;2023-06-22T01:51:57;96205.22;;;21.29;81.60
36386;BME280;24125;47.482;8.770;2023-06-22T01:54:30;96209.88;;;21.29;81.51
36386;BME280;24125;47.482;8.770;2023-06-22T01:57:04;96213.75;;;21.28;81.45
36386;BME280;24125;47.482;8.770;2023-06-22T01:59:39;96207.97;;;21.26;81.71
36386;BME280;24125;47.482;8.770;2023-06-22T02:02:16;96213.00;;;21.27;81.80
36386;BME280;24125;47.482;8.770;2023-06-22T02:04:52;96231.25;;;21.27;81.85
36386;BME280;24125;47.482;8.770;2023-06-22T02:07:28;96228.53;;;21.23;81.57
36386;BME280;24125;47.482;8.770;2023-06-22T02:10:03;96227.75;;;21.23;81.79
36386;BME280;24125;47.482;8.770;2023-06-22T02:12:39;96223.47;;;21.22;81.60
36386;BME280;24125;47.482;8.770;2023-06-22T02:15:15;96226.59;;;21.20;81.55
36386;BME280;24125;47.482;8.770;2023-06-22T02:17:49;96227.00;;;21.19;81.51
36386;BME280;24125;47.482;8.770;2023-06-22T02:20:22;96212.22;;;21.16;81.46
36386;BME280;24125;47.482;8.770;2023-06-22T02:22:56;96216.09;;;21.15;81.53
36386;BME280;24125;47.482;8.770;2023-06-22T02:25:29;96223.88;;;21.13;81.48
36386;BME280;24125;47.482;8.770;2023-06-22T02:28:03;96212.63;;;21.11;81.45
36386;BME280;24125;47.482;8.770;2023-06-22T02:30:37;96206.06;;;21.08;81.60
36386;BME280;24125;47.482;8.770;2023-06-22T02:33:10;96220.00;;;21.07;81.40
36386;BME280;24125;47.482;8.770;2023-06-22T02:35:43;96215.34;;;21.04;81.60
36386;BME280;24125;47.482;8.770;2023-06-22T02:38:19;96219.22;;;21.03;81.49
36386;BME280;24125;47.482;8.770;2023-06-22T02:40:52;96214.59;;;21.00;81.59
36386;BME280;24125;47.482;8.770;2023-06-22T02:43:24;96204.13;;;20.98;81.59
36386;BME280;24125;47.482;8.770;2023-06-22T02:45:59;96198.31;;;20.96;81.67
36386;BME280;24125;47.482;8.770;2023-06-22T02:48:31;96204.91;;;20.95;81.51
36386;BME280;24125;47.482;8.770;2023-06-22T02:51:04;96204.13;;;20.95;81.75
36386;BME280;24125;47.482;8.770;2023-06-22T02:53:37;96203.78;;;20.93;81.58
36386;BME280;24125;47.482;8.770;2023-06-22T02:56:10;96214.63;;;20.93;81.75
36386;BME280;24125;47.482;8.770;2023-06-22T02:58:44;96207.25;;;20.90;81.82
36386;BME280;24125;47.482;8.770;2023-06-22T03:01:18;96222.75;;;20.89;81.85
36386;BME280;24125;47.482;8.770;2023-06-22T03:03:55;96215.00;;;20.88;81.61
36386;BME280;24125;47.482;8.770;2023-06-22T03:06:27;96208.81;;;20.87;81.74
36386;BME280;24125;47.482;8.770;2023-06-22T03:09:01;96208.81;;;20.87;81.73
36386;BME280;24125;47.482;8.770;2023-06-22T03:11:35;96200.28;;;20.85;81.90
36386;BME280;24125;47.482;8.770;2023-06-22T03:14:08;96197.19;;;20.83;81.89
36386;BME280;24125;47.482;8.770;2023-06-22T03:16:42;96193.72;;;20.83;82.03
36386;BME280;24125;47.482;8.770;2023-06-22T03:19:15;96197.97;;;20.84;82.04
36386;BME280;24125;47.482;8.770;2023-06-22T03:21:48;96204.19;;;20.84;82.18
36386;BME280;24125;47.482;8.770;2023-06-22T03:24:20;96202.63;;;20.83;82.20
36386;BME280;24125;47.482;8.770;2023-06-22T03:26:53;96202.63;;;20.83;82.31
36386;BME280;24125;47.482;8.770;2023-06-22T03:29:26;96206.13;;;20.84;82.42
36386;BME280;24125;47.482;8.770;2023-06-22T03:32:04;96201.47;;;20.84;82.21
36386;BME280;24125;47.482;8.770;2023-06-22T03:34:37;96191.34;;;20.85;82.41
36386;BME280;24125;47.482;8.770;2023-06-22T03:37:10;96185.94;;;20.85;82.45
36386;BME280;24125;47.482;8.770;2023-06-22T03:39:43;96186.72;;;20.85;82.44
36386;BME280;24125;47.482;8.770;2023-06-22T03:42:16;96198.34;;;20.86;82.69
36386;BME280;24125;47.482;8.770;2023-06-22T03:44:49;96196.00;;;20.88;82.33
36386;BME280;24125;47.482;8.770;2023-06-22T03:47:23;96205.31;;;20.87;82.36
36386;BME280;24125;47.482;8.770;2023-06-22T03:49:56;96179.72;;;20.88;82.54
36386;BME280;24125;47.482;8.770;2023-06-22T03:52:29;96185.16;;;20.88;82.54
36386;BME280;24125;47.482;8.770;2023-06-22T03:55:02;96181.28;;;20.89;82.65
36386;BME280;24125;47.482;8.770;2023-06-22T03:57:35;96185.53;;;20.90;82.61
36386;BME280;24125;47.482;8.770;2023-06-22T04:00:08;96183.59;;;20.90;82.57
36386;BME280;24125;47.482;8.770;2023-06-22T04:02:44;96183.59;;;20.94;82.78
36386;BME280;24125;47.482;8.770;2023-06-22T04:05:16;96178.16;;;20.94;82.82
36386;BME280;24125;47.482;8.770;2023-06-22T04:07:50;96180.09;;;20.97;82.62
36386;BME280;24125;47.482;8.770;2023-06-22T04:10:23;96176.59;;;21.00;82.93
36386;BME280;24125;47.482;8.770;2023-06-22T04:12:56;96176.59;;;21.00;82.81
36386;BME280;24125;47.482;8.770;2023-06-22T04:15:29;96170.38;;;21.03;83.07
36386;BME280;24125;47.482;8.770;2023-06-22T04:18:03;96181.22;;;21.06;82.89
36386;BME280;24125;47.482;8.770;2023-06-22T04:20:36;96178.53;;;21.10;83.12
36386;BME280;24125;47.482;8.770;2023-06-22T04:23:09;96169.56;;;21.13;83.05
36386;BME280;24125;47.482;8.770;2023-06-22T04:25:41;96171.16;;;21.18;83.14
36386;BME280;24125;47.482;8.770;2023-06-22T04:28:14;96167.63;;;21.21;83.25
36386;BME280;24125;47.482;8.770;2023-06-22T04:30:47;96161.81;;;21.26;83.19
36386;BME280;24125;47.482;8.770;2023-06-22T04:33:21;96168.75;;;21.30;83.44
36386;BME280;24125;47.482;8.770;2023-06-22T04:35:54;96173.03;;;21.35;83.39
36386;BME280;24125;47.482;8.770;2023-06-22T04:38:28;96177.63;;;21.41;83.69
36386;BME280;24125;47.482;8.770;2023-06-22T04:41:04;96177.59;;;21.49;83.74
36386;BME280;24125;47.482;8.770;2023-06-22T04:43:37;96168.63;;;21.59;84.47
36386;BME280;24125;47.482;8.770;2023-06-22T04:46:10;96177.84;;;21.72;85.00
36386;BME280;24125;47.482;8.770;2023-06-22T04:48:44;96180.84;;;21.88;85.88
36386;BME280;24125;47.482;8.770;2023-06-22T04:51:17;96178.06;;;22.06;86.35
36386;BME280;24125;47.482;8.770;2023-06-22T04:53:53;96181.00;;;22.29;86.91
36386;BME280;24125;47.482;8.770;2023-06-22T04:56:32;96174.56;;;22.53;87.79
36386;BME280;24125;47.482;8.770;2023-06-22T04:59:05;96179.00;;;22.81;88.32
36386;BME280;24125;47.482;8.770;2023-06-22T05:01:38;96166.63;;;23.11;88.68
36386;BME280;24125;47.482;8.770;2023-06-22T05:04:12;96166.25;;;23.43;88.77
36386;BME280;24125;47.482;8.770;2023-06-22T05:06:45;96170.91;;;23.76;88.98
36386;BME280;24125;47.482;8.770;2023-06-22T05:09:18;96167.28;;;24.10;89.03
36386;BME280;24125;47.482;8.770;2023-06-22T05:11:51;96171.44;;;24.44;89.43
36386;BME280;24125;47.482;8.770;2023-06-22T05:14:24;96159.53;;;24.78;89.13
36386;BME280;24125;47.482;8.770;2023-06-22T05:16:56;96166.31;;;25.13;88.52
36386;BME280;24125;47.482;8.770;2023-06-22T05:19:37;96155.44;;;25.49;88.39
36386;BME280;24125;47.482;8.770;2023-06-22T05:22:10;96160.19;;;25.84;88.05
36386;BME280;24125;47.482;8.770;2023-06-22T05:24:44;96152.00;;;26.17;87.55
36386;BME280;24125;47.482;8.770;2023-06-22T05:27:16;96150.81;;;26.50;87.11
36386;BME280;24125;47.482;8.770;2023-06-22T05:29:49;96154.25;;;26.83;87.04
36386;BME280;24125;47.482;8.770;2023-06-22T05:32:22;96140.47;;;27.16;86.58
36386;BME280;24125;47.482;8.770;2023-06-22T05:34:57;96153.28;;;27.48;85.89
36386;BME280;24125;47.482;8.770;2023-06-22T05:37:29;96150.06;;;27.78;86.12
36386;BME280;24125;47.482;8.770;2023-06-22T05:40:03;96160.50;;;28.08;85.44
36386;BME280;24125;47.482;8.770;2023-06-22T05:42:36;96168.94;;;28.39;84.88
36386;BME280;24125;47.482;8.770;2023-06-22T05:45:09;96153.50;;;28.67;85.45
36386;BME280;24125;47.482;8.770;2023-06-22T05:47:42;96151.03;;;28.95;84.29
36386;BME280;24125;47.482;8.770;2023-06-22T05:50:16;96145.41;;;29.20;83.55
36386;BME280;24125;47.482;8.770;2023-06-22T05:52:49;96150.00;;;29.45;80.70
36386;BME280;24125;47.482;8.770;2023-06-22T05:55:21;96160.97;;;29.67;81.59
36386;BME280;24125;47.482;8.770;2023-06-22T05:57:54;96157.41;;;29.88;81.27
36386;BME280;24125;47.482;8.770;2023-06-22T06:00:27;96163.34;;;30.08;81.33
36386;BME280;24125;47.482;8.770;2023-06-22T06:03:00;96164.03;;;30.30;82.00
36386;BME280;24125;47.482;8.770;2023-06-22T06:05:37;96152.59;;;30.50;81.58
36386;BME280;24125;47.482;8.770;2023-06-22T06:08:09;96142.53;;;30.65;80.35
36386;BME280;24125;47.482;8.770;2023-06-22T06:10:43;96145.47;;;30.80;80.56
36386;BME280;24125;47.482;8.770;2023-06-22T06:13:16;96150.06;;;30.92;78.04
36386;BME280;24125;47.482;8.770;2023-06-22T06:15:48;96151.59;;;31.02;79.19
36386;BME280;24125;47.482;8.770;2023-06-22T06:18:22;96158.06;;;31.08;78.86
36386;BME280;24125;47.482;8.770;2023-06-22T06:20:57;96157.91;;;31.12;76.92
36386;BME280;24125;47.482;8.770;2023-06-22T06:23:29;96156.69;;;31.13;78.18
36386;BME280;24125;47.482;8.770;2023-06-22T06:26:02;96161.44;;;31.13;76.19
36386;BME280;24125;47.482;8.770;2023-06-22T06:28:38;96156.84;;;31.09;76.87
36386;BME280;24125;47.482;8.770;2023-06-22T06:31:12;96163.84;;;31.01;77.56
36386;BME280;24125;47.482;8.770;2023-06-22T06:33:48;96163.06;;;30.92;77.30
36386;BME280;24125;47.482;8.770;2023-06-22T06:36:22;96162.31;;;30.82;76.74
36386;BME280;24125;47.482;8.770;2023-06-22T06:38:55;96163.84;;;30.74;77.13
36386;BME280;24125;47.482;8.770;2023-06-22T06:41:28;96168.56;;;30.64;78.72
36386;BME280;24125;47.482;8.770;2023-06-22T06:44:03;96165.47;;;30.53;77.04
36386;BME280;24125;47.482;8.770;2023-06-22T06:46:36;96168.66;;;30.43;77.38
36386;BME280;24125;47.482;8.770;2023-06-22T06:49:09;96169.41;;;30.34;77.52
36386;BME280;24125;47.482;8.770;2023-06-22T06:51:43;96168.16;;;30.26;77.57
36386;BME280;24125;47.482;8.770;2023-06-22T06:54:16;96180.69;;;30.18;77.50
36386;BME280;24125;47.482;8.770;2023-06-22T06:56:52;96172.66;;;30.11;76.84
36386;BME280;24125;47.482;8.770;2023-06-22T06:59:25;96177.69;;;30.03;77.71
36386;BME280;24125;47.482;8.770;2023-06-22T07:01:57;96174.44;;;29.95;78.96
36386;BME280;24125;47.482;8.770;2023-06-22T07:04:30;96171.19;;;29.88;77.80
36386;BME280;24125;47.482;8.770;2023-06-22T07:07:05;96165.50;;;29.82;77.16
36386;BME280;24125;47.482;8.770;2023-06-22T07:09:38;96163.78;;;29.76;78.28
36386;BME280;24125;47.482;8.770;2023-06-22T07:12:11;96162.38;;;29.71;78.88
36386;BME280;24125;47.482;8.770;2023-06-22T07:14:44;96164.19;;;29.65;78.98
36386;BME280;24125;47.482;8.770;2023-06-22T07:17:16;96171.03;;;29.60;79.14
36386;BME280;24125;47.482;8.770;2023-06-22T07:19:49;96178.66;;;29.56;78.52
36386;BME280;24125;47.482;8.770;2023-06-22T07:22:23;96171.63;;;29.55;79.22
36386;BME280;24125;47.482;8.770;2023-06-22T07:24:56;96171.97;;;29.57;79.74
36386;BME280;24125;47.482;8.770;2023-06-22T07:27:29;96175.66;;;29.63;80.10
36386;BME280;24125;47.482;8.770;2023-06-22T07:30:06;96177.25;;;29.74;80.11
36386;BME280;24125;47.482;8.770;2023-06-22T07:32:39;96191.34;;;29.85;80.78
36386;BME280;24125;47.482;8.770;2023-06-22T07:35:12;96210.88;;;29.99;81.42
36386;BME280;24125;47.482;8.770;2023-06-22T07:37:49;96249.50;;;30.18;82.14
36386;BME280;24125;47.482;8.770;2023-06-22T07:40:22;96283.38;;;30.36;81.70
36386;BME280;24125;47.482;8.770;2023-06-22T07:42:55;96300.94;;;30.52;82.05
36386;BME280;24125;47.482;8.770;2023-06-22T07:45:27;96319.34;;;30.64;81.59
36386;BME280;24125;47.482;8.770;2023-06-22T07:48:00;96317.84;;;30.72;79.57
36386;BME280;24125;47.482;8.770;2023-06-22T07:50:33;96313.28;;;30.78;80.42
36386;BME280;24125;47.482;8.770;2023-06-22T07:53:07;96361.19;;;30.81;80.13
36386;BME280;24125;47.482;8.770;2023-06-22T07:55:40;96338.69;;;30.82;79.23
36386;BME280;24125;47.482;8.770;2023-06-22T07:58:13;96307.63;;;30.82;79.52
36386;BME280;24125;47.482;8.770;2023-06-22T08:00:47;96332.28;;;30.85;79.76
36386;BME280;24125;47.482;8.770;2023-06-22T08:03:20;96311.16;;;30.91;80.06
36386;BME280;24125;47.482;8.770;2023-06-22T08:05:53;96315.94;;;31.00;80.40
36386;BME280;24125;47.482;8.770;2023-06-22T08:08:27;96329.44;;;31.07;80.35
36386;BME280;24125;47.482;8.770;2023-06-22T08:11:00;96314.31;;;31.11;80.07
36386;BME280;24125;47.482;8.770;2023-06-22T08:13:33;96321.19;;;31.16;80.02
36386;BME280;24125;47.482;8.770;2023-06-22T08:16:06;96317.53;;;31.19;80.73
36386;BME280;24125;47.482;8.770;2023-06-22T08:18:39;96325.34;;;31.21;80.36
36386;BME280;24125;47.482;8.770;2023-06-22T08:21:12;96310.81;;;31.20;79.15
36386;BME280;24125;47.482;8.770;2023-06-22T08:23:46;96311.84;;;31.23;78.57
36386;BME280;24125;47.482;8.770;2023-06-22T08:26:19;96301.13;;;31.25;80.54
36386;BME280;24125;47.482;8.770;2023-06-22T08:28:53;96291.97;;;31.28;79.77
36386;BME280;24125;47.482;8.770;2023-06-22T08:31:26;96285.53;;;31.31;80.22
36386;BME280;24125;47.482;8.770;2023-06-22T08:33:58;96303.31;;;31.39;80.55
36386;BME280;24125;47.482;8.770;2023-06-22T08:36:31;96284.00;;;31.48;81.38
36386;BME280;24125;47.482;8.770;2023-06-22T08:39:14;96265.44;;;31.58;81.23
36386;BME280;24125;47.482;8.770;2023-06-22T08:41:48;96255.19;;;31.67;80.33
36386;BME280;24125;47.482;8.770;2023-06-22T08:44:20;96239.06;;;31.75;80.19
36386;BME280;24125;47.482;8.770;2023-06-22T08:46:53;96237.25;;;31.81;79.91
36386;BME280;24125;47.482;8.770;2023-06-22T08:49:26;96244.13;;;31.85;79.32
36386;BME280;24125;47.482;8.770;2023-06-22T08:51:59;96244.44;;;31.88;77.89
36386;BME280;24125;47.482;8.770;2023-06-22T08:54:33;96250.25;;;31.90;79.25
36386;BME280;24125;47.482;8.770;2023-06-22T08:57:06;96236.44;;;31.90;78.28
36386;BME280;24125;47.482;8.770;2023-06-22T08:59:39;96243.50;;;31.91;78.26
36386;BME280;24125;47.482;8.770;2023-06-22T09:02:12;96244.56;;;31.93;78.88
36386;BME280;24125;47.482;8.770;2023-06-22T09:04:45;96248.69;;;31.98;78.72
36386;BME280;24125;47.482;8.770;2023-06-22T09:07:19;96252.81;;;32.02;79.27
36386;BME280;24125;47.482;8.770;2023-06-22T09:09:55;96245.47;;;32.08;78.92
36386;BME280;24125;47.482;8.770;2023-06-22T09:12:28;96228.25;;;32.13;80.04
36386;BME280;24125;47.482;8.770;2023-06-22T09:15:02;96223.19;;;32.21;78.72
36386;BME280;24125;47.482;8.770;2023-06-22T09:17:35;96225.91;;;32.30;80.17
36386;BME280;24125;47.482;8.770;2023-06-22T09:20:08;96230.16;;;32.40;81.10
36386;BME280;24125;47.482;8.770;2023-06-22T09:22:42;96226.91;;;32.51;80.52
36386;BME280;24125;47.482;8.770;2023-06-22T09:25:16;96235.72;;;32.64;81.01
36386;BME280;24125;47.482;8.770;2023-06-22T09:27:51;96223.25;;;32.78;81.32
36386;BME280;24125;47.482;8.770;2023-06-22T09:30:24;96214.69;;;32.90;81.71
36386;BME280;24125;47.482;8.770;2023-06-22T09:32:57;96197.38;;;33.05;80.44
36386;BME280;24125;47.482;8.770;2023-06-22T09:35:31;96191.59;;;33.17;80.72
36386;BME280;24125;47.482;8.770;2023-06-22T09:38:04;96190.63;;;33.29;77.20
36386;BME280;24125;47.482;8.770;2023-06-22T09:40:38;96197.09;;;33.41;79.64
36386;BME280;24125;47.482;8.770;2023-06-22T09:43:12;96193.00;;;33.51;78.99
36386;BME280;24125;47.482;8.770;2023-06-22T09:45:45;96190.16;;;33.60;79.36
36386;BME280;24125;47.482;8.770;2023-06-22T09:48:17;96187.28;;;33.69;78.80
36386;BME280;24125;47.482;8.770;2023-06-22T09:50:50;96183.41;;;33.76;79.08
36386;BME280;24125;47.482;8.770;2023-06-22T09:53:23;96172.69;;;33.84;79.02
36386;BME280;24125;47.482;8.770;2023-06-22T09:55:57;96179.19;;;33.95;79.15
36386;BME280;24125;47.482;8.770;2023-06-22T09:58:30;96166.94;;;34.02;78.98
36386;BME280;24125;47.482;8.770;2023-06-22T10:01:03;96172.38;;;34.11;79.00
36386;BME280;24125;47.482;8.770;2023-06-22T10:03:36;96162.25;;;34.23;79.40
36386;BME280;24125;47.482;8.770;2023-06-22T10:06:09;96159.94;;;34.36;79.89
36386;BME280;24125;47.482;8.770;2023-06-22T10:08:42;96157.88;;;34.51;79.89
36386;BME280;24125;47.482;8.770;2023-06-22T10:11:16;96148.75;;;34.65;80.27
36386;BME280;24125;47.482;8.770;2023-06-22T10:13:49;96135.59;;;34.80;79.98
36386;BME280;24125;47.482;8.770;2023-06-22T10:16:23;96140.28;;;34.95;79.13
36386;BME280;24125;47.482;8.770;2023-06-22T10:18:58;96133.13;;;35.08;79.75
36386;BME280;24125;47.482;8.770;2023-06-22T10:21:31;96137.06;;;35.22;79.87
36386;BME280;24125;47.482;8.770;2023-06-22T10:24:05;96133.19;;;35.34;79.19
36386;BME280;24125;47.482;8.770;2023-06-22T10:26:40;96136.06;;;35.45;78.58
36386;BME280;24125;47.482;8.770;2023-06-22T10:29:12;96133.38;;;35.56;79.11
36386;BME280;24125;47.482;8.770;2023-06-22T10:31:47;96127.16;;;35.67;78.63
36386;BME280;24125;47.482;8.770;2023-06-22T10:34:20;96125.75;;;35.77;78.54
36386;BME280;24125;47.482;8.770;2023-06-22T10:36:53;96137.66;;;35.83;76.52
36386;BME280;24125;47.482;8.770;2023-06-22T10:39:26;96136.19;;;35.88;77.14
36386;BME280;24125;47.482;8.770;2023-06-22T10:42:00;96133.19;;;35.91;77.22
36386;BME280;24125;47.482;8.770;2023-06-22T10:44:33;96129.91;;;35.93;77.01
36386;BME280;24125;47.482;8.770;2023-06-22T10:47:06;96124.13;;;35.97;76.88
36386;BME280;24125;47.482;8.770;2023-06-22T10:49:39;96119.88;;;36.01;77.37
36386;BME280;24125;47.482;8.770;2023-06-22T10:52:12;96116.38;;;36.06;77.29
36386;BME280;24125;47.482;8.770;2023-06-22T10:54:45;96119.69;;;36.10;77.56
36386;BME280;24125;47.482;8.770;2023-06-22T10:57:19;96125.25;;;36.16;77.32
36386;BME280;24125;47.482;8.770;2023-06-22T10:59:52;96122.06;;;36.23;77.05
36386;BME280;24125;47.482;8.770;2023-06-22T11:02:25;96129.44;;;36.32;78.09
36386;BME280;24125;47.482;8.770;2023-06-22T11:04:59;96140.09;;;36.39;78.15
36386;BME280;24125;47.482;8.770;2023-06-22T11:07:33;96133.56;;;36.47;78.06
36386;BME280;24125;47.482;8.770;2023-06-22T11:10:06;96135.88;;;36.54;77.84
36386;BME280;24125;47.482;8.770;2023-06-22T11:12:40;96140.47;;;36.63;77.85
36386;BME280;24125;47.482;8.770;2023-06-22T11:15:14;96137.25;;;36.70;77.35
36386;BME280;24125;47.482;8.770;2023-06-22T11:17:46;96144.09;;;36.75;75.89
36386;BME280;24125;47.482;8.770;2023-06-22T11:20:19;96141.06;;;36.78;77.08
36386;BME280;24125;47.482;8.770;2023-06-22T11:22:52;96153.22;;;36.81;76.67
36386;BME280;24125;47.482;8.770;2023-06-22T11:25:25;96142.34;;;36.83;76.14
36386;BME280;24125;47.482;8.770;2023-06-22T11:27:59;96146.91;;;36.86;76.14
36386;BME280;24125;47.482;8.770;2023-06-22T11:30:32;96151.47;;;36.89;76.53
36386;BME280;24125;47.482;8.770;2023-06-22T11:33:05;96160.84;;;36.91;76.83
36386;BME280;24125;47.482;8.770;2023-06-22T11:35:38;96159.34;;;36.90;77.75
36386;BME280;24125;47.482;8.770;2023-06-22T11:38:11;96162.38;;;36.92;75.92
36386;BME280;24125;47.482;8.770;2023-06-22T11:40:44;96170.47;;;36.90;75.68
36386;BME280;24125;47.482;8.770;2023-06-22T11:43:18;96163.38;;;36.89;74.89
36386;BME280;24125;47.482;8.770;2023-06-22T11:45:51;96159.06;;;36.88;76.84
36386;BME280;24125;47.482;8.770;2023-06-22T11:48:23;96161.56;;;36.86;74.71
36386;BME280;24125;47.482;8.770;2023-06-22T11:50:56;96161.56;;;36.86;73.85
36386;BME280;24125;47.482;8.770;2023-06-22T11:53:30;96162.84;;;36.85;75.30
36386;BME280;24125;47.482;8.770;2023-06-22T11:56:03;96164.13;;;36.84;76.01
36386;BME280;24125;47.482;8.770;2023-06-22T11:58:38;96169.91;;;36.81;76.27
36386;BME280;24125;47.482;8.770;2023-06-22T12:01:11;96165.34;;;36.78;74.65
36386;BME280;24125;47.482;8.770;2023-06-22T12:03:46;96173.94;;;36.74;74.55
36386;BME280;24125;47.482;8.770;2023-06-22T12:06:19;96170.88;;;36.72;74.90
36386;BME280;24125;47.482;8.770;2023-06-22T12:08:52;96172.91;;;36.72;75.22
36386;BME280;24125;47.482;8.770;2023-06-22T12:11:25;96169.34;;;36.71;75.37
36386;BME280;24125;47.482;8.770;2023-06-22T12:14:00;96165.81;;;36.71;75.16
36386;BME280;24125;47.482;8.770;2023-06-22T12:16:34;96166.56;;;36.71;75.22
36386;BME280;24125;47.482;8.770;2023-06-22T12:19:07;96158.50;;;36.73;77.00
36386;BME280;24125;47.482;8.770;2023-06-22T12:21:39;96164.56;;;36.72;76.57
36386;BME280;24125;47.482;8.770;2023-06-22T12:24:13;96159.75;;;36.72;77.00
36386;BME280;24125;47.482;8.770;2023-06-22T12:26:46;96160.03;;;36.74;76.42
36386;BME280;24125;47.482;8.770;2023-06-22T12:29:20;96150.44;;;36.75;74.13
36386;BME280;24125;47.482;8.770;2023-06-22T12:31:53;96148.41;;;36.76;75.67
36386;BME280;24125;47.482;8.770;2023-06-22T12:34:25;96143.56;;;36.76;75.18
36386;BME280;24125;47.482;8.770;2023-06-22T12:36:58;96150.66;;;36.77;76.51
36386;BME280;24125;47.482;8.770;2023-06-22T12:39:31;96152.94;;;36.79;77.24
36386;BME280;24125;47.482;8.770;2023-06-22T12:42:04;96145.38;;;36.79;76.74
36386;BME280;24125;47.482;8.770;2023-06-22T12:44:41;96155.50;;;36.82;78.42
36386;BME280;24125;47.482;8.770;2023-06-22T12:47:14;96159.81;;;36.83;75.39
36386;BME280;24125;47.482;8.770;2023-06-22T12:49:47;96162.84;;;36.85;76.78
36386;BME280;24125;47.482;8.770;2023-06-22T12:52:19;96164.13;;;36.90;77.23
36386;BME280;24125;47.482;8.770;2023-06-22T12:54:52;96159.34;;;36.96;76.24
36386;BME280;24125;47.482;8.770;2023-06-22T12:57:26;96156.34;;;37.05;77.27
36386;BME280;24125;47.482;8.770;2023-06-22T13:00:00;96154.31;;;37.11;77.15
36386;BME280;24125;47.482;8.770;2023-06-22T13:02:33;96159.47;;;37.18;81.83
36386;BME280;24125;47.482;8.770;2023-06-22T13:05:06;96155.38;;;37.19;79.78
36386;BME280;24125;47.482;8.770;2023-06-22T13:07:40;96136.94;;;37.16;75.18
36386;BME280;24125;47.482;8.770;2023-06-22T13:10:14;96126.28;;;37.15;74.27
36386;BME280;24125;47.482;8.770;2023-06-22T13:12:46;96124.75;;;37.14;76.15
36386;BME280;24125;47.482;8.770;2023-06-22T13:15:21;96128.50;;;37.11;76.38
36386;BME280;24125;47.482;8.770;2023-06-22T13:17:54;96132.59;;;37.10;77.35
36386;BME280;24125;47.482;8.770;2023-06-22T13:20:28;96129.53;;;37.08;75.85
36386;BME280;24125;47.482;8.770;2023-06-22T13:23:01;96138.13;;;37.04;74.66
36386;BME280;24125;47.482;8.770;2023-06-22T13:25:34;96139.63;;;36.99;74.97
36386;BME280;24125;47.482;8.770;2023-06-22T13:28:07;96146.47;;;36.98;75.37
36386;BME280;24125;47.482;8.770;2023-06-22T13:30:55;96149.50;;;37.00;74.81
36386;BME280;24125;47.482;8.770;2023-06-22T13:33:28;96160.88;;;37.02;74.84